createdAt,value
2019-05-17T00:02:17.517Z,10.13
2019-05-17T00:04:47.301Z,8.50
2019-05-17T00:07:16.912Z,11.33
2019-05-17T00:09:47.878Z,20.52
2019-05-17T00:12:17.641Z,14.38
2019-05-17T00:14:47.369Z,12.70
2019-05-17T00:17:17.501Z,12.23
2019-05-17T00:19:47.200Z,14.25
2019-05-17T00:22:16.902Z,18.73
2019-05-17T00:24:47.692Z,17.30
2019-05-17T00:27:17.494Z,29.93
2019-05-17T00:29:47.148Z,11.65
2019-05-17T00:32:17.259Z,16.00
2019-05-17T00:34:47.089Z,21.65
2019-05-17T00:37:17.436Z,12.85
2019-05-17T00:39:47.320Z,34.27
2019-05-17T00:42:17.130Z,27.17
2019-05-17T00:44:47.372Z,32.25
2019-05-17T00:47:17.310Z,35.52
2019-05-17T00:49:47.386Z,35.15
2019-05-17T00:52:16.913Z,20.32
2019-05-17T00:54:46.931Z,46.48
2019-05-17T00:57:16.755Z,23.02
2019-05-17T00:59:47.656Z,25.90
2019-05-17T01:02:17.280Z,32.73
2019-05-17T01:04:47.889Z,33.23
2019-05-17T01:07:17.862Z,32.42
2019-05-17T01:09:47.436Z,19.65
2019-05-17T01:12:16.986Z,23.52
2019-05-17T01:14:46.755Z,22.98
2019-05-17T01:17:16.652Z,20.62
2019-05-17T01:19:47.164Z,29.72
2019-05-17T01:22:17.055Z,24.05
2019-05-17T01:24:46.600Z,34.23
2019-05-17T01:27:17.229Z,28.73
2019-05-17T01:29:47.128Z,39.73
2019-05-17T01:32:17.653Z,44.60
2019-05-17T01:34:47.192Z,18.42
2019-05-17T01:37:17.239Z,21.37
2019-05-17T01:39:47.250Z,13.72
2019-05-17T01:42:17.320Z,25.27
2019-05-17T01:44:47.335Z,25.75
2019-05-17T01:47:17.089Z,21.48
2019-05-17T01:49:47.206Z,33.13
2019-05-17T01:52:16.940Z,24.47
2019-05-17T01:54:47.059Z,28.45
2019-05-17T01:57:17.264Z,22.00
2019-05-17T01:59:47.360Z,51.77
2019-05-17T02:02:36.764Z,32.38
2019-05-17T02:05:07.371Z,30.55
2019-05-17T02:07:37.262Z,20.60
2019-05-17T02:10:07.511Z,21.87
2019-05-17T02:12:37.322Z,22.77
2019-05-17T02:15:09.770Z,40.88
2019-05-17T02:17:39.330Z,20.15
2019-05-17T02:20:09.083Z,18.70
2019-05-17T02:22:38.717Z,13.53
2019-05-17T02:25:10.116Z,26.23
2019-05-17T02:27:41.867Z,24.43
2019-05-17T02:30:14.112Z,20.00
2019-05-17T02:32:43.372Z,26.55
2019-05-17T02:35:14.483Z,18.73
2019-05-17T02:37:44.291Z,46.10
2019-05-17T02:40:15.445Z,17.62
2019-05-17T02:42:45.908Z,12.58
2019-05-17T02:45:15.607Z,21.23
2019-05-17T02:47:45.846Z,25.60
2019-05-17T02:50:15.384Z,25.35
2019-05-17T02:52:45.702Z,48.73
2019-05-17T02:55:15.898Z,51.58
2019-05-17T02:57:45.534Z,22.05
2019-05-17T03:00:15.071Z,22.85
2019-05-17T03:02:44.620Z,29.50
2019-05-17T03:05:14.293Z,27.13
2019-05-17T03:07:44.401Z,32.63
2019-05-17T03:10:23.706Z,20.65
2019-05-17T03:12:45.698Z,25.30
2019-05-17T03:15:15.226Z,18.98
2019-05-17T03:17:44.787Z,20.35
2019-05-17T03:20:14.590Z,18.00
2019-05-17T03:22:44.577Z,30.40
2019-05-17T03:25:14.654Z,27.62
2019-05-17T03:27:44.248Z,43.08
2019-05-17T03:30:18.547Z,30.45
2019-05-17T03:32:48.045Z,38.10
2019-05-17T03:35:18.266Z,23.42
2019-05-17T03:37:48.084Z,23.57
2019-05-17T03:40:55.138Z,48.92
2019-05-17T03:42:48.859Z,30.23
2019-05-17T03:45:18.559Z,31.70
2019-05-17T03:47:48.118Z,32.23
2019-05-17T03:50:17.652Z,21.50
2019-05-17T03:52:47.178Z,28.95
2019-05-17T03:55:16.746Z,22.05
2019-05-17T03:57:46.282Z,22.27
2019-05-17T04:00:16.965Z,34.60
2019-05-17T04:02:46.503Z,30.77
2019-05-17T04:05:16.529Z,28.98
2019-05-17T04:07:46.215Z,21.57
2019-05-17T04:10:16.251Z,24.82
2019-05-17T04:12:46.082Z,34.35
2019-05-17T04:15:15.689Z,26.40
2019-05-17T04:17:46.199Z,27.42
2019-05-17T04:20:15.726Z,32.90
2019-05-17T04:22:46.247Z,33.48
2019-05-17T04:25:15.775Z,38.67
2019-05-17T04:27:45.976Z,45.05
2019-05-17T04:30:15.528Z,24.35
2019-05-17T04:32:46.356Z,49.88
2019-05-17T04:35:15.884Z,25.88
2019-05-17T04:37:46.281Z,35.50
2019-05-17T04:40:15.825Z,34.03
2019-05-17T04:42:45.924Z,24.43
2019-05-17T04:45:15.462Z,34.40
2019-05-17T04:47:46.216Z,20.35
2019-05-17T04:50:15.762Z,42.33
2019-05-17T04:52:46.459Z,26.20
2019-05-17T04:55:16.069Z,23.20
2019-05-17T04:57:46.369Z,29.63
2019-05-17T05:00:15.890Z,31.27
2019-05-17T05:02:46.794Z,19.92
2019-05-17T05:05:16.647Z,23.07
2019-05-17T05:07:46.208Z,23.65
2019-05-17T05:10:15.746Z,24.67
2019-05-17T05:12:46.109Z,21.97
2019-05-17T05:15:15.655Z,18.27
2019-05-17T05:17:46.854Z,19.45
2019-05-17T05:20:16.411Z,19.07
2019-05-17T05:22:46.310Z,18.10
2019-05-17T05:25:15.863Z,17.55
2019-05-17T05:27:45.654Z,12.75
2019-05-17T05:30:15.216Z,12.98
2019-05-17T05:32:44.744Z,13.00
2019-05-17T05:35:14.305Z,15.30
2019-05-17T05:37:43.846Z,14.47
2019-05-17T05:40:13.390Z,14.43
2019-05-17T05:42:43.052Z,15.18
2019-05-17T05:45:12.833Z,13.38
2019-05-17T05:47:42.870Z,16.93
2019-05-17T05:50:14.062Z,13.78
2019-05-17T05:52:43.626Z,16.12
2019-05-17T05:55:13.157Z,16.42
2019-05-17T05:57:42.692Z,15.48
2019-05-17T06:00:13.601Z,13.95
2019-05-17T06:02:43.213Z,18.77
2019-05-17T06:05:16.933Z,17.45
2019-05-17T06:07:43.997Z,14.68
2019-05-17T06:10:13.532Z,13.62
2019-05-17T06:12:43.715Z,13.35
2019-05-17T06:15:13.404Z,15.15
2019-05-17T06:17:43.236Z,13.68
2019-05-17T06:20:12.865Z,15.30
2019-05-17T06:22:43.026Z,15.08
2019-05-17T06:25:14.944Z,15.60
2019-05-17T06:27:43.992Z,13.88
2019-05-17T06:30:13.542Z,13.15
2019-05-17T06:32:43.642Z,13.13
2019-05-17T06:35:17.632Z,13.70
2019-05-17T06:37:47.537Z,14.47
2019-05-17T06:40:17.063Z,16.77
2019-05-17T06:42:46.615Z,15.95
2019-05-17T06:45:16.145Z,14.87
2019-05-17T06:47:47.637Z,15.68
2019-05-17T06:50:17.351Z,15.68
2019-05-17T06:52:46.869Z,15.58
2019-05-17T06:55:16.437Z,14.23
2019-05-17T06:57:46.028Z,15.40
2019-05-17T07:00:20.796Z,15.93
2019-05-17T07:02:49.669Z,13.15
2019-05-17T07:05:20.134Z,15.90
2019-05-17T07:07:50.000Z,15.45
2019-05-17T07:10:19.726Z,15.18
2019-05-17T07:12:58.267Z,14.55
2019-05-17T07:15:20.520Z,14.87
2019-05-17T07:17:50.529Z,14.38
2019-05-17T07:20:20.169Z,14.70
2019-05-17T07:22:50.680Z,14.50
2019-05-17T07:25:20.336Z,15.20
2019-05-17T07:27:50.409Z,14.87
2019-05-17T07:30:20.008Z,14.58
2019-05-17T07:32:49.905Z,16.55
2019-05-17T07:35:19.841Z,14.73
2019-05-17T07:37:50.114Z,15.30
2019-05-17T07:40:19.930Z,15.75
2019-05-17T07:42:50.092Z,16.20
2019-05-17T07:45:20.350Z,15.32
2019-05-17T07:47:50.006Z,17.30
2019-05-17T07:50:20.294Z,16.17
2019-05-17T07:52:50.090Z,18.17
2019-05-17T07:55:22.867Z,17.98
2019-05-17T07:57:50.871Z,18.32
2019-05-17T08:00:20.776Z,18.37
2019-05-17T08:02:50.559Z,18.62
2019-05-17T08:05:21.361Z,17.07
2019-05-17T08:07:51.129Z,19.80
2019-05-17T08:10:20.663Z,17.85
2019-05-17T08:12:50.192Z,18.12
2019-05-17T08:15:19.875Z,18.40
2019-05-17T08:17:50.233Z,19.15
2019-05-17T08:20:20.365Z,18.98
2019-05-17T08:22:50.317Z,20.85
2019-05-17T08:25:20.107Z,20.55
2019-05-17T08:27:50.358Z,18.73
2019-05-17T08:30:20.867Z,19.92
2019-05-17T08:32:50.706Z,20.82
2019-05-17T08:35:20.256Z,21.37
2019-05-17T08:37:50.036Z,20.82
2019-05-17T08:40:20.152Z,20.62
2019-05-17T08:42:50.006Z,19.57
2019-05-17T08:45:20.577Z,21.45
2019-05-17T08:47:50.345Z,21.42
2019-05-17T08:50:20.201Z,22.45
2019-05-17T08:52:49.796Z,20.90
2019-05-17T08:55:20.489Z,20.97
2019-05-17T08:57:50.212Z,21.20
2019-05-17T09:00:20.725Z,21.27
2019-05-17T09:02:50.468Z,19.95
2019-05-17T09:05:21.164Z,18.95
2019-05-17T09:07:51.020Z,20.27
2019-05-17T09:10:20.878Z,22.45
2019-05-17T09:12:50.556Z,22.67
2019-05-17T09:15:20.466Z,23.30
2019-05-17T09:17:50.141Z,23.10
2019-05-17T09:20:20.426Z,23.18
2019-05-17T09:22:51.071Z,21.55
2019-05-17T09:25:22.117Z,21.62
2019-05-17T09:27:51.944Z,21.97
2019-05-17T09:30:21.493Z,20.85
2019-05-17T09:32:51.033Z,21.52
2019-05-17T09:35:20.916Z,18.75
2019-05-17T09:37:50.692Z,20.17
2019-05-17T09:40:20.235Z,19.48
2019-05-17T09:42:50.041Z,18.77
2019-05-17T09:45:21.568Z,17.02
2019-05-17T09:47:51.105Z,17.25
2019-05-17T09:50:20.631Z,17.15
2019-05-17T09:52:50.193Z,17.40
2019-05-17T09:55:19.795Z,18.77
2019-05-17T09:57:49.805Z,17.42
2019-05-17T10:00:20.861Z,17.75
2019-05-17T10:02:50.991Z,17.25
2019-05-17T10:05:20.645Z,17.57
2019-05-17T10:07:50.656Z,17.82
2019-05-17T10:10:20.605Z,16.62
2019-05-17T10:12:50.240Z,16.10
2019-05-17T10:15:20.741Z,17.50
2019-05-17T10:17:50.502Z,17.55
2019-05-17T10:20:20.125Z,18.35
2019-05-17T10:22:50.357Z,16.45
2019-05-17T10:25:20.261Z,15.23
2019-05-17T10:27:49.949Z,16.20
2019-05-17T10:30:20.892Z,15.50
2019-05-17T10:32:50.838Z,15.98
2019-05-17T10:35:20.459Z,14.35
2019-05-17T10:37:50.538Z,14.78
2019-05-17T10:40:21.146Z,16.37
2019-05-17T10:42:50.668Z,16.25
2019-05-17T10:45:20.201Z,16.60
2019-05-17T10:47:50.345Z,18.37
2019-05-17T10:50:20.599Z,18.15
2019-05-17T10:52:50.393Z,17.05
2019-05-17T10:55:20.161Z,14.55
2019-05-17T10:57:50.112Z,15.13
2019-05-17T11:00:19.895Z,15.30
2019-05-17T11:02:50.322Z,15.53
2019-05-17T11:05:20.278Z,15.75
2019-05-17T11:07:50.647Z,13.30
2019-05-17T11:10:20.306Z,13.53
2019-05-17T11:12:49.842Z,12.40
2019-05-17T11:15:20.009Z,13.93
2019-05-17T11:17:49.541Z,12.88
2019-05-17T11:20:19.073Z,10.93
2019-05-17T11:22:48.624Z,11.48
2019-05-17T11:25:18.159Z,11.25
2019-05-17T11:27:47.717Z,12.23
2019-05-17T11:30:17.246Z,11.75
2019-05-17T11:32:46.779Z,11.03
2019-05-17T11:35:16.319Z,11.68
2019-05-17T11:37:46.562Z,10.98
2019-05-17T11:40:16.092Z,11.75
2019-05-17T11:42:46.088Z,12.75
2019-05-17T11:45:27.157Z,12.37
2019-05-17T11:47:46.881Z,10.95
2019-05-17T11:50:16.409Z,8.73
2019-05-17T11:52:46.120Z,7.80
2019-05-17T11:55:15.657Z,8.25
2019-05-17T11:57:46.448Z,9.38
2019-05-17T12:00:16.045Z,8.20
2019-05-17T12:02:46.942Z,8.73
2019-05-17T12:05:16.455Z,7.00
2019-05-17T12:07:46.061Z,7.97
2019-05-17T12:10:15.596Z,8.10
2019-05-17T12:12:46.481Z,7.62
2019-05-17T12:15:15.995Z,8.25
2019-05-17T12:17:46.758Z,7.58
2019-05-17T12:20:16.273Z,7.83
2019-05-17T12:22:46.085Z,6.47
2019-05-17T12:25:15.692Z,7.45
2019-05-17T12:27:46.821Z,4.85
2019-05-17T12:30:17.982Z,3.52
2019-05-17T12:32:47.599Z,3.10
2019-05-17T12:35:17.139Z,2.65
2019-05-17T12:37:46.821Z,4.60
2019-05-17T12:40:16.350Z,3.75
2019-05-17T12:42:46.420Z,2.45
2019-05-17T12:45:15.955Z,2.92
2019-05-17T12:47:45.937Z,2.10
2019-05-17T12:50:15.478Z,2.20
2019-05-17T12:52:46.357Z,2.90
2019-05-17T12:55:17.516Z,2.40
2019-05-17T12:57:47.064Z,2.95
2019-05-17T13:00:18.243Z,3.77
2019-05-17T13:02:47.766Z,4.40
2019-05-17T13:05:17.291Z,4.17
2019-05-17T13:07:46.847Z,5.78
2019-05-17T13:10:16.411Z,5.35
2019-05-17T13:12:46.804Z,5.80
2019-05-17T13:15:16.325Z,5.70
2019-05-17T13:17:46.229Z,12.13
2019-05-17T13:20:15.850Z,6.85
2019-05-17T13:22:46.595Z,5.80
2019-05-17T13:25:16.117Z,6.37
2019-05-17T13:27:46.408Z,5.33
2019-05-17T13:30:15.937Z,6.00
2019-05-17T13:32:46.644Z,5.53
2019-05-17T13:35:16.956Z,13.58
2019-05-17T13:37:46.473Z,6.22
2019-05-17T13:40:16.093Z,5.37
2019-05-17T13:42:46.180Z,4.65
2019-05-17T13:45:15.708Z,6.90
2019-05-17T13:47:46.211Z,3.98
2019-05-17T13:50:15.803Z,4.10
2019-05-17T13:52:47.206Z,3.60
2019-05-17T13:55:16.729Z,3.85
2019-05-17T13:57:46.256Z,5.17
2019-05-17T14:00:15.790Z,4.92
2019-05-17T14:02:46.780Z,5.20
2019-05-17T14:05:16.353Z,5.03
2019-05-17T14:07:46.090Z,7.25
2019-05-17T14:10:26.913Z,7.17
2019-05-17T14:12:46.841Z,7.33
2019-05-17T14:15:16.363Z,5.60
2019-05-17T14:17:46.573Z,6.37
2019-05-17T14:20:16.082Z,6.55
2019-05-17T14:22:46.214Z,6.58
2019-05-17T14:25:15.754Z,6.37
2019-05-17T14:27:46.841Z,6.60
2019-05-17T14:30:16.402Z,6.35
2019-05-17T14:32:46.885Z,7.20
2019-05-17T14:35:16.418Z,6.03
2019-05-17T14:37:46.218Z,7.65
2019-05-17T14:40:15.743Z,7.70
2019-05-17T14:42:46.449Z,7.45
2019-05-17T14:45:16.039Z,7.90
2019-05-17T14:47:46.885Z,7.87
2019-05-17T14:50:16.433Z,8.33
2019-05-17T14:52:46.506Z,6.95
2019-05-17T14:55:16.055Z,6.58
2019-05-17T14:57:46.048Z,6.30
2019-05-17T15:00:15.581Z,5.70
2019-05-17T15:02:46.073Z,6.10
2019-05-17T15:05:15.612Z,6.58
2019-05-17T15:07:46.206Z,6.12
2019-05-17T15:10:15.743Z,8.60
2019-05-17T15:12:46.344Z,8.40
2019-05-17T15:15:25.819Z,7.33
2019-05-17T15:17:47.110Z,8.33
2019-05-17T15:20:16.659Z,8.20
2019-05-17T15:22:46.265Z,8.43
2019-05-17T15:25:15.794Z,9.15
2019-05-17T15:27:46.567Z,9.65
2019-05-17T15:30:17.034Z,9.10
2019-05-17T15:32:46.573Z,9.03
2019-05-17T15:35:16.099Z,9.25
2019-05-17T15:37:46.268Z,10.23
2019-05-17T15:40:15.825Z,10.48
2019-05-17T15:42:46.257Z,9.95
2019-05-17T15:45:15.775Z,10.70
2019-05-17T15:47:46.311Z,10.08
2019-05-17T15:50:15.837Z,11.15
2019-05-17T15:52:46.553Z,9.58
2019-05-17T15:55:16.101Z,10.50
2019-05-17T15:57:46.399Z,11.57
2019-05-17T16:00:16.324Z,11.18
2019-05-17T16:02:47.076Z,11.90
2019-05-17T16:05:16.997Z,11.43
2019-05-17T16:07:46.525Z,11.33
2019-05-17T16:10:16.093Z,11.18
2019-05-17T16:13:00.876Z,11.43
2019-05-17T16:15:17.664Z,12.07
2019-05-17T16:17:47.201Z,10.58
2019-05-17T16:20:17.189Z,9.00
2019-05-17T16:22:46.842Z,9.45
2019-05-17T16:25:16.378Z,9.05
2019-05-17T16:27:46.373Z,8.88
2019-05-17T16:30:15.915Z,9.78
2019-05-17T16:36:15.866Z,12.33
2019-05-17T16:38:46.561Z,13.28
2019-05-17T16:41:16.092Z,13.55
2019-05-17T16:43:46.694Z,12.25
2019-05-17T16:46:16.239Z,12.03
2019-05-17T16:48:46.635Z,11.68
2019-05-17T16:51:16.193Z,13.08
2019-05-17T16:53:46.254Z,11.25
2019-05-17T16:56:15.797Z,11.63
2019-05-17T16:58:46.323Z,10.30
2019-05-17T17:01:15.868Z,11.08
2019-05-17T17:03:45.965Z,12.18
2019-05-17T17:06:15.521Z,11.97
2019-05-17T17:08:46.845Z,11.08
2019-05-17T17:11:16.397Z,11.30
2019-05-17T17:13:46.328Z,9.78
2019-05-17T17:16:15.838Z,10.20
2019-05-17T17:18:46.468Z,10.70
2019-05-17T17:21:16.003Z,11.08
2019-05-17T17:23:46.333Z,10.45
2019-05-17T17:26:15.888Z,11.38
2019-05-17T17:28:46.269Z,9.85
2019-05-17T17:31:15.831Z,11.00
2019-05-17T17:33:46.249Z,11.68
2019-05-17T17:36:15.801Z,10.65
2019-05-17T17:38:46.497Z,10.78
2019-05-17T17:41:16.087Z,11.25
2019-05-17T17:43:57.889Z,12.33
2019-05-17T17:46:17.985Z,11.90
2019-05-17T17:48:47.562Z,12.47
2019-05-17T17:51:17.213Z,11.73
2019-05-17T17:53:46.771Z,13.55
2019-05-17T17:56:16.321Z,13.08
2019-05-17T17:58:46.521Z,13.70
2019-05-17T18:01:16.097Z,11.95
2019-05-17T18:03:46.220Z,12.40
2019-05-17T18:06:15.785Z,12.90
2019-05-17T18:08:46.476Z,12.53
2019-05-17T18:11:16.009Z,12.05
2019-05-17T18:13:46.413Z,12.45
2019-05-17T18:16:15.952Z,12.18
2019-05-17T18:18:46.561Z,11.85
2019-05-17T18:21:16.144Z,13.78
2019-05-17T18:23:46.980Z,13.08
2019-05-17T18:26:16.547Z,13.72
2019-05-17T18:28:46.452Z,12.25
2019-05-17T18:31:15.986Z,10.88
2019-05-17T18:33:46.696Z,12.55
2019-05-17T18:36:16.226Z,12.30
2019-05-17T18:38:47.201Z,18.42
2019-05-17T18:41:16.751Z,10.53
2019-05-17T18:43:46.294Z,11.60
2019-05-17T18:46:17.477Z,13.05
2019-05-17T18:48:47.003Z,14.07
2019-05-17T18:51:16.538Z,11.28
2019-05-17T18:53:46.351Z,12.55
2019-05-17T18:56:15.897Z,11.97
2019-05-17T18:58:46.652Z,12.65
2019-05-17T19:01:17.594Z,12.45
2019-05-17T19:03:48.610Z,11.30
2019-05-17T19:06:18.834Z,13.15
2019-05-17T19:08:48.398Z,11.80
2019-05-17T19:11:17.977Z,12.60
2019-05-17T19:13:48.001Z,12.55
2019-05-17T19:16:17.528Z,13.88
2019-05-17T19:18:47.090Z,11.97
2019-05-17T19:21:16.616Z,13.15
2019-05-17T19:23:46.536Z,11.80
2019-05-17T19:26:16.122Z,11.08
2019-05-17T19:28:46.326Z,11.85
2019-05-17T19:31:15.882Z,12.88
2019-05-17T19:33:46.478Z,14.63
2019-05-17T19:36:16.033Z,11.88
2019-05-17T19:38:46.552Z,12.33
2019-05-17T19:41:16.112Z,14.20
2019-05-17T19:43:46.321Z,13.62
2019-05-17T19:46:15.886Z,13.95
2019-05-17T19:48:46.651Z,13.55
2019-05-17T19:51:16.222Z,14.60
2019-05-17T19:53:46.291Z,12.75
2019-05-17T19:56:15.810Z,12.23
2019-05-17T19:58:46.328Z,13.03
2019-05-17T20:01:15.855Z,16.15
2019-05-17T20:03:46.666Z,16.45
2019-05-17T20:06:16.221Z,15.85
2019-05-17T20:08:46.622Z,13.43
2019-05-17T20:11:16.181Z,14.40
2019-05-17T20:13:46.690Z,13.85
2019-05-17T20:16:16.229Z,14.18
2019-05-17T20:18:46.435Z,13.43
2019-05-17T20:21:15.965Z,13.83
2019-05-17T20:23:46.170Z,16.32
2019-05-17T20:26:15.691Z,16.67
2019-05-17T20:28:46.406Z,15.45
2019-05-17T20:31:15.938Z,16.20
2019-05-17T20:33:46.250Z,14.35
2019-05-17T20:36:15.780Z,15.98
2019-05-17T20:38:46.969Z,14.45
2019-05-17T20:41:16.523Z,13.85
2019-05-17T20:43:46.394Z,14.40
2019-05-17T20:46:15.917Z,14.83
2019-05-17T20:48:46.707Z,13.90
2019-05-17T20:51:16.229Z,17.05
2019-05-17T20:53:46.727Z,14.35
2019-05-17T20:56:30.129Z,14.68
2019-05-17T20:58:47.505Z,16.20
2019-05-17T21:01:17.041Z,15.30
2019-05-17T21:03:46.577Z,15.45
2019-05-17T21:06:16.104Z,17.37
2019-05-17T21:08:46.738Z,16.17
2019-05-17T21:11:16.334Z,15.95
2019-05-17T21:13:46.549Z,16.17
2019-05-17T21:16:16.084Z,14.87
2019-05-17T21:18:46.689Z,15.25
2019-05-17T21:21:16.225Z,16.17
2019-05-17T21:23:46.208Z,16.23
2019-05-17T21:26:15.741Z,16.17
2019-05-17T21:28:47.382Z,15.68
2019-05-17T21:31:17.044Z,15.68
2019-05-17T21:33:47.950Z,16.45
2019-05-17T21:36:17.483Z,15.32
2019-05-17T21:38:47.013Z,14.90
2019-05-17T21:41:16.540Z,15.40
2019-05-17T21:43:46.551Z,15.72
2019-05-17T21:46:16.097Z,15.95
2019-05-17T21:48:46.403Z,17.20
2019-05-17T21:51:15.948Z,16.32
2019-05-17T21:53:46.446Z,17.37
2019-05-17T21:56:15.984Z,15.58
2019-05-17T21:58:46.680Z,15.83
2019-05-17T22:01:18.542Z,15.15
2019-05-17T22:06:17.455Z,16.52
2019-05-17T22:08:48.572Z,16.00
2019-05-17T22:11:18.595Z,16.90
2019-05-17T22:13:48.124Z,15.48
2019-05-17T22:16:19.897Z,16.97
2019-05-17T22:18:48.936Z,15.00
2019-05-17T22:21:18.499Z,16.48
2019-05-17T22:23:48.024Z,17.05
2019-05-17T22:26:17.579Z,16.65
2019-05-17T22:28:47.115Z,17.23
2019-05-17T22:31:16.748Z,17.23
2019-05-17T22:33:47.308Z,17.55
2019-05-17T22:36:16.865Z,17.45
2019-05-17T22:38:46.393Z,18.25
2019-05-17T22:41:15.943Z,18.42
2019-05-17T22:43:46.627Z,19.60
2019-05-17T22:46:16.190Z,19.57
2019-05-17T22:48:46.494Z,17.90
2019-05-17T22:51:16.041Z,19.65
2019-05-17T22:53:46.349Z,19.50
2019-05-17T22:56:15.905Z,19.75
2019-05-17T22:58:46.929Z,19.07
2019-05-17T23:01:16.469Z,19.75
2019-05-17T23:03:47.227Z,18.55
2019-05-17T23:06:16.775Z,19.52
2019-05-17T23:08:46.325Z,19.00
2019-05-17T23:11:15.856Z,18.07
2019-05-17T23:13:46.585Z,18.98
2019-05-17T23:16:16.243Z,20.05
2019-05-17T23:19:05.389Z,18.20
2019-05-17T23:21:34.924Z,20.52
2019-05-17T23:24:04.948Z,18.75
2019-05-17T23:26:34.509Z,19.23
2019-05-17T23:29:04.049Z,16.82
2019-05-17T23:31:33.581Z,17.75
2019-05-17T23:34:03.134Z,18.77
2019-05-17T23:36:32.665Z,16.90
2019-05-17T23:39:02.246Z,19.80
2019-05-17T23:41:31.768Z,19.92
2019-05-17T23:44:02.302Z,17.17
2019-05-17T23:46:31.821Z,19.65
2019-05-17T23:49:01.358Z,18.30
2019-05-17T23:51:31.085Z,21.93
2019-05-17T23:54:00.638Z,18.45
2019-05-17T23:56:30.170Z,18.40
2019-05-17T23:58:59.721Z,17.02
